sensor_id;sensor_type;location;lat;lon;timestamp;temperature;humidity
52209;DHT22;38507;53.132;6.394;2024-03-29T00:01:22;8.40;99.90
52209;DHT22;38507;53.132;6.394;2024-03-29T00:03:48;8.50;99.90
52209;DHT22;38507;53.132;6.394;2024-03-29T00:06:13;8.40;99.90
52209;DHT22;38507;53.132;6.394;2024-03-29T00:08:39;8.40;99.90
52209;DHT22;38507;53.132;6.394;2024-03-29T00:11:05;9.20;99.90
52209;DHT22;38507;53.132;6.394;2024-03-29T00:13:30;8.40;99.90
52209;DHT22;38507;53.132;6.394;2024-03-29T00:15:56;8.40;99.90
52209;DHT22;38507;53.132;6.394;2024-03-29T00:18:22;8.30;99.90
52209;DHT22;38507;53.132;6.394;2024-03-29T00:20:49;8.30;99.90
52209;DHT22;38507;53.132;6.394;2024-03-29T00:23:14;8.30;99.90
52209;DHT22;38507;53.132;6.394;2024-03-29T00:25:40;8.30;99.90
52209;DHT22;38507;53.132;6.394;2024-03-29T00:28:05;8.30;99.90
52209;DHT22;38507;53.132;6.394;2024-03-29T00:30:31;8.30;99.90
52209;DHT22;38507;53.132;6.394;2024-03-29T00:32:57;8.30;99.90
52209;DHT22;38507;53.132;6.394;2024-03-29T00:35:22;8.30;99.90
52209;DHT22;38507;53.132;6.394;2024-03-29T00:37:49;8.20;99.90
52209;DHT22;38507;53.132;6.394;2024-03-29T00:40:15;8.40;99.90
52209;DHT22;38507;53.132;6.394;2024-03-29T00:42:41;8.20;99.90
52209;DHT22;38507;53.132;6.394;2024-03-29T00:45:07;8.30;99.90
52209;DHT22;38507;53.132;6.394;2024-03-29T00:47:33;8.20;99.90
52209;DHT22;38507;53.132;6.394;2024-03-29T00:49:58;8.20;99.90
52209;DHT22;38507;53.132;6.394;2024-03-29T00:52:24;8.20;99.90
52209;DHT22;38507;53.132;6.394;2024-03-29T00:54:50;8.20;99.90
52209;DHT22;38507;53.132;6.394;2024-03-29T00:57:15;8.20;99.90
52209;DHT22;38507;53.132;6.394;2024-03-29T00:59:42;8.20;99.90
52209;DHT22;38507;53.132;6.394;2024-03-29T01:02:09;8.20;99.90
52209;DHT22;38507;53.132;6.394;2024-03-29T01:04:34;8.20;99.90
52209;DHT22;38507;53.132;6.394;2024-03-29T01:07:00;8.20;99.90
52209;DHT22;38507;53.132;6.394;2024-03-29T01:09:26;8.20;99.90
52209;DHT22;38507;53.132;6.394;2024-03-29T01:11:51;8.30;99.90
52209;DHT22;38507;53.132;6.394;2024-03-29T01:14:17;8.30;99.90
52209;DHT22;38507;53.132;6.394;2024-03-29T01:16:43;8.20;99.90
52209;DHT22;38507;53.132;6.394;2024-03-29T01:19:08;8.30;99.90
52209;DHT22;38507;53.132;6.394;2024-03-29T01:21:37;8.20;99.90
52209;DHT22;38507;53.132;6.394;2024-03-29T01:24:03;8.30;99.90
52209;DHT22;38507;53.132;6.394;2024-03-29T01:26:31;8.20;99.90
52209;DHT22;38507;53.132;6.394;2024-03-29T01:28:57;8.30;99.90
52209;DHT22;38507;53.132;6.394;2024-03-29T01:31:23;8.20;99.90
52209;DHT22;38507;53.132;6.394;2024-03-29T01:33:49;8.30;99.90
52209;DHT22;38507;53.132;6.394;2024-03-29T01:36:15;8.90;99.90
52209;DHT22;38507;53.132;6.394;2024-03-29T01:38:41;8.20;99.90
52209;DHT22;38507;53.132;6.394;2024-03-29T01:41:06;8.20;99.90
52209;DHT22;38507;53.132;6.394;2024-03-29T01:43:32;8.10;99.90
52209;DHT22;38507;53.132;6.394;2024-03-29T01:45:58;8.50;99.90
52209;DHT22;38507;53.132;6.394;2024-03-29T01:48:24;8.10;99.90
52209;DHT22;38507;53.132;6.394;2024-03-29T01:50:52;8.10;99.90
52209;DHT22;38507;53.132;6.394;2024-03-29T01:53:19;8.10;99.90
52209;DHT22;38507;53.132;6.394;2024-03-29T01:55:45;8.30;99.90
52209;DHT22;38507;53.132;6.394;2024-03-29T01:58:11;8.00;99.90
52209;DHT22;38507;53.132;6.394;2024-03-29T02:00:43;8.00;99.90
52209;DHT22;38507;53.132;6.394;2024-03-29T02:03:09;8.00;99.90
52209;DHT22;38507;53.132;6.394;2024-03-29T02:05:39;8.00;99.90
52209;DHT22;38507;53.132;6.394;2024-03-29T02:08:07;8.00;99.90
52209;DHT22;38507;53.132;6.394;2024-03-29T02:10:36;8.00;99.90
52209;DHT22;38507;53.132;6.394;2024-03-29T02:13:02;8.00;99.90
52209;DHT22;38507;53.132;6.394;2024-03-29T02:15:29;7.90;99.90
52209;DHT22;38507;53.132;6.394;2024-03-29T02:17:54;7.90;99.90
52209;DHT22;38507;53.132;6.394;2024-03-29T02:20:20;8.50;99.90
52209;DHT22;38507;53.132;6.394;2024-03-29T02:23:11;7.90;99.90
52209;DHT22;38507;53.132;6.394;2024-03-29T02:25:37;7.80;99.90
52209;DHT22;38507;53.132;6.394;2024-03-29T02:28:03;7.90;99.90
52209;DHT22;38507;53.132;6.394;2024-03-29T02:30:32;7.80;99.90
52209;DHT22;38507;53.132;6.394;2024-03-29T02:33:01;7.90;99.90
52209;DHT22;38507;53.132;6.394;2024-03-29T02:35:27;7.90;99.90
52209;DHT22;38507;53.132;6.394;2024-03-29T02:37:54;8.50;99.90
52209;DHT22;38507;53.132;6.394;2024-03-29T02:40:20;7.80;99.90
52209;DHT22;38507;53.132;6.394;2024-03-29T02:42:47;7.80;99.90
52209;DHT22;38507;53.132;6.394;2024-03-29T02:45:13;7.80;99.90
52209;DHT22;38507;53.132;6.394;2024-03-29T02:47:38;8.40;99.90
52209;DHT22;38507;53.132;6.394;2024-03-29T02:50:06;7.80;99.90
52209;DHT22;38507;53.132;6.394;2024-03-29T02:52:31;7.80;99.90
52209;DHT22;38507;53.132;6.394;2024-03-29T02:54:57;8.70;99.90
52209;DHT22;38507;53.132;6.394;2024-03-29T02:57:23;7.80;99.90
52209;DHT22;38507;53.132;6.394;2024-03-29T02:59:48;8.60;99.90
52209;DHT22;38507;53.132;6.394;2024-03-29T03:02:14;7.80;99.90
52209;DHT22;38507;53.132;6.394;2024-03-29T03:04:39;7.80;99.90
52209;DHT22;38507;53.132;6.394;2024-03-29T03:07:05;7.80;99.90
52209;DHT22;38507;53.132;6.394;2024-03-29T03:09:53;7.80;99.90
52209;DHT22;38507;53.132;6.394;2024-03-29T03:12:38;7.80;99.90
52209;DHT22;38507;53.132;6.394;2024-03-29T03:15:04;7.80;99.90
52209;DHT22;38507;53.132;6.394;2024-03-29T03:17:31;7.80;99.90
52209;DHT22;38507;53.132;6.394;2024-03-29T03:19:57;7.80;99.90
52209;DHT22;38507;53.132;6.394;2024-03-29T03:22:22;7.90;99.90
52209;DHT22;38507;53.132;6.394;2024-03-29T03:24:48;7.80;99.90
52209;DHT22;38507;53.132;6.394;2024-03-29T03:27:14;7.80;99.90
52209;DHT22;38507;53.132;6.394;2024-03-29T03:29:39;7.80;99.90
52209;DHT22;38507;53.132;6.394;2024-03-29T03:32:06;8.20;99.90
52209;DHT22;38507;53.132;6.394;2024-03-29T03:34:32;7.90;99.90
52209;DHT22;38507;53.132;6.394;2024-03-29T03:36:58;7.90;99.90
52209;DHT22;38507;53.132;6.394;2024-03-29T03:39:23;7.90;99.90
52209;DHT22;38507;53.132;6.394;2024-03-29T03:41:49;7.90;99.90
52209;DHT22;38507;53.132;6.394;2024-03-29T03:44:15;8.20;99.90
52209;DHT22;38507;53.132;6.394;2024-03-29T03:46:41;8.00;99.90
52209;DHT22;38507;53.132;6.394;2024-03-29T03:49:07;7.90;99.90
52209;DHT22;38507;53.132;6.394;2024-03-29T03:51:32;7.90;99.90
52209;DHT22;38507;53.132;6.394;2024-03-29T03:53:58;8.40;99.90
52209;DHT22;38507;53.132;6.394;2024-03-29T03:56:23;8.00;99.90
52209;DHT22;38507;53.132;6.394;2024-03-29T03:58:49;7.90;99.90
52209;DHT22;38507;53.132;6.394;2024-03-29T04:01:14;7.90;99.90
52209;DHT22;38507;53.132;6.394;2024-03-29T04:03:40;8.10;99.90
52209;DHT22;38507;53.132;6.394;2024-03-29T04:06:06;7.90;99.90
52209;DHT22;38507;53.132;6.394;2024-03-29T04:08:32;7.90;99.90
52209;DHT22;38507;53.132;6.394;2024-03-29T04:11:01;8.00;99.90
52209;DHT22;38507;53.132;6.394;2024-03-29T04:13:27;7.90;99.90
52209;DHT22;38507;53.132;6.394;2024-03-29T04:15:52;7.90;99.90
52209;DHT22;38507;53.132;6.394;2024-03-29T04:18:18;8.00;99.90
52209;DHT22;38507;53.132;6.394;2024-03-29T04:20:43;8.20;99.90
52209;DHT22;38507;53.132;6.394;2024-03-29T04:23:09;7.90;99.90
52209;DHT22;38507;53.132;6.394;2024-03-29T04:25:35;7.90;99.90
52209;DHT22;38507;53.132;6.394;2024-03-29T04:28:00;7.90;99.90
52209;DHT22;38507;53.132;6.394;2024-03-29T04:30:26;8.00;99.90
52209;DHT22;38507;53.132;6.394;2024-03-29T04:32:52;7.90;99.90
52209;DHT22;38507;53.132;6.394;2024-03-29T04:35:18;7.90;99.90
52209;DHT22;38507;53.132;6.394;2024-03-29T04:37:44;8.90;99.90
52209;DHT22;38507;53.132;6.394;2024-03-29T04:40:11;8.10;99.90
52209;DHT22;38507;53.132;6.394;2024-03-29T04:42:37;8.00;99.90
52209;DHT22;38507;53.132;6.394;2024-03-29T04:45:02;8.00;99.90
52209;DHT22;38507;53.132;6.394;2024-03-29T04:47:29;8.00;99.90
52209;DHT22;38507;53.132;6.394;2024-03-29T04:49:55;8.00;99.90
52209;DHT22;38507;53.132;6.394;2024-03-29T04:52:20;8.00;99.90
52209;DHT22;38507;53.132;6.394;2024-03-29T04:54:47;8.00;99.90
52209;DHT22;38507;53.132;6.394;2024-03-29T04:57:13;8.10;99.90
52209;DHT22;38507;53.132;6.394;2024-03-29T04:59:39;8.00;99.90
52209;DHT22;38507;53.132;6.394;2024-03-29T05:02:04;8.10;99.90
52209;DHT22;38507;53.132;6.394;2024-03-29T05:04:30;8.30;99.90
52209;DHT22;38507;53.132;6.394;2024-03-29T05:06:57;8.10;99.90
52209;DHT22;38507;53.132;6.394;2024-03-29T05:09:24;8.10;99.90
52209;DHT22;38507;53.132;6.394;2024-03-29T05:11:50;8.10;99.90
52209;DHT22;38507;53.132;6.394;2024-03-29T05:14:17;8.10;99.90
52209;DHT22;38507;53.132;6.394;2024-03-29T05:16:46;8.10;99.90
52209;DHT22;38507;53.132;6.394;2024-03-29T05:19:15;8.10;99.90
52209;DHT22;38507;53.132;6.394;2024-03-29T05:21:42;8.10;99.90
52209;DHT22;38507;53.132;6.394;2024-03-29T05:24:08;8.10;99.90
52209;DHT22;38507;53.132;6.394;2024-03-29T05:26:34;8.10;99.90
52209;DHT22;38507;53.132;6.394;2024-03-29T05:28:59;8.20;99.90
52209;DHT22;38507;53.132;6.394;2024-03-29T05:31:26;8.20;99.90
52209;DHT22;38507;53.132;6.394;2024-03-29T05:33:52;8.20;99.90
52209;DHT22;38507;53.132;6.394;2024-03-29T05:36:18;8.20;99.90
52209;DHT22;38507;53.132;6.394;2024-03-29T05:38:44;8.30;99.90
52209;DHT22;38507;53.132;6.394;2024-03-29T05:41:10;8.30;99.90
52209;DHT22;38507;53.132;6.394;2024-03-29T05:43:35;8.30;99.90
52209;DHT22;38507;53.132;6.394;2024-03-29T05:46:02;8.30;99.90
52209;DHT22;38507;53.132;6.394;2024-03-29T05:48:28;8.30;99.90
52209;DHT22;38507;53.132;6.394;2024-03-29T05:50:54;8.30;99.90
52209;DHT22;38507;53.132;6.394;2024-03-29T05:53:20;8.30;99.90
52209;DHT22;38507;53.132;6.394;2024-03-29T05:55:45;8.30;99.90
52209;DHT22;38507;53.132;6.394;2024-03-29T05:58:11;8.30;99.90
52209;DHT22;38507;53.132;6.394;2024-03-29T06:00:42;8.30;99.90
52209;DHT22;38507;53.132;6.394;2024-03-29T06:03:07;9.00;99.90
52209;DHT22;38507;53.132;6.394;2024-03-29T06:05:33;8.40;99.90
52209;DHT22;38507;53.132;6.394;2024-03-29T06:07:58;8.40;99.90
52209;DHT22;38507;53.132;6.394;2024-03-29T06:10:24;8.40;99.90
52209;DHT22;38507;53.132;6.394;2024-03-29T06:12:49;8.40;99.90
52209;DHT22;38507;53.132;6.394;2024-03-29T06:15:15;8.40;99.90
52209;DHT22;38507;53.132;6.394;2024-03-29T06:18:17;8.40;99.90
52209;DHT22;38507;53.132;6.394;2024-03-29T06:20:47;8.40;99.90
52209;DHT22;38507;53.132;6.394;2024-03-29T06:23:12;8.50;99.90
52209;DHT22;38507;53.132;6.394;2024-03-29T06:25:39;8.50;99.90
52209;DHT22;38507;53.132;6.394;2024-03-29T06:28:05;8.50;99.90
52209;DHT22;38507;53.132;6.394;2024-03-29T06:30:31;8.50;99.90
52209;DHT22;38507;53.132;6.394;2024-03-29T06:32:56;8.60;99.90
52209;DHT22;38507;53.132;6.394;2024-03-29T06:35:24;8.60;99.90
52209;DHT22;38507;53.132;6.394;2024-03-29T06:37:49;8.60;99.90
52209;DHT22;38507;53.132;6.394;2024-03-29T06:40:15;8.60;99.90
52209;DHT22;38507;53.132;6.394;2024-03-29T06:42:41;8.60;99.90
52209;DHT22;38507;53.132;6.394;2024-03-29T06:45:06;8.70;99.90
52209;DHT22;38507;53.132;6.394;2024-03-29T06:47:32;8.70;99.90
52209;DHT22;38507;53.132;6.394;2024-03-29T06:49:58;8.70;99.90
52209;DHT22;38507;53.132;6.394;2024-03-29T06:52:23;8.70;99.90
52209;DHT22;38507;53.132;6.394;2024-03-29T06:54:49;8.80;99.90
52209;DHT22;38507;53.132;6.394;2024-03-29T06:57:15;9.70;99.90
52209;DHT22;38507;53.132;6.394;2024-03-29T06:59:42;8.90;99.90
52209;DHT22;38507;53.132;6.394;2024-03-29T07:02:08;8.90;99.90
52209;DHT22;38507;53.132;6.394;2024-03-29T07:04:35;9.00;99.90
52209;DHT22;38507;53.132;6.394;2024-03-29T07:07:01;8.90;99.90
52209;DHT22;38507;53.132;6.394;2024-03-29T07:09:26;9.00;99.90
52209;DHT22;38507;53.132;6.394;2024-03-29T07:11:52;9.00;99.90
52209;DHT22;38507;53.132;6.394;2024-03-29T07:14:21;9.00;99.90
52209;DHT22;38507;53.132;6.394;2024-03-29T07:16:48;9.10;99.90
52209;DHT22;38507;53.132;6.394;2024-03-29T07:19:14;9.10;99.90
52209;DHT22;38507;53.132;6.394;2024-03-29T07:21:45;9.20;99.90
52209;DHT22;38507;53.132;6.394;2024-03-29T07:24:12;9.20;99.90
52209;DHT22;38507;53.132;6.394;2024-03-29T07:26:37;9.30;99.90
52209;DHT22;38507;53.132;6.394;2024-03-29T07:29:04;9.30;99.90
52209;DHT22;38507;53.132;6.394;2024-03-29T07:31:31;9.30;99.90
52209;DHT22;38507;53.132;6.394;2024-03-29T07:33:57;9.80;99.90
52209;DHT22;38507;53.132;6.394;2024-03-29T07:36:22;9.40;99.90
52209;DHT22;38507;53.132;6.394;2024-03-29T07:38:51;9.40;99.90
52209;DHT22;38507;53.132;6.394;2024-03-29T07:41:16;9.40;99.90
52209;DHT22;38507;53.132;6.394;2024-03-29T07:43:53;9.40;99.90
52209;DHT22;38507;53.132;6.394;2024-03-29T07:46:22;9.50;99.90
52209;DHT22;38507;53.132;6.394;2024-03-29T07:48:49;9.50;99.90
52209;DHT22;38507;53.132;6.394;2024-03-29T07:51:14;9.60;99.90
52209;DHT22;38507;53.132;6.394;2024-03-29T07:53:40;9.60;99.90
52209;DHT22;38507;53.132;6.394;2024-03-29T07:56:06;9.80;99.90
52209;DHT22;38507;53.132;6.394;2024-03-29T07:58:31;9.60;99.90
52209;DHT22;38507;53.132;6.394;2024-03-29T08:00:57;9.60;99.90
52209;DHT22;38507;53.132;6.394;2024-03-29T08:03:22;9.60;99.90
52209;DHT22;38507;53.132;6.394;2024-03-29T08:06:01;9.80;99.90
52209;DHT22;38507;53.132;6.394;2024-03-29T08:08:33;9.60;99.90
52209;DHT22;38507;53.132;6.394;2024-03-29T08:10:59;9.60;99.90
52209;DHT22;38507;53.132;6.394;2024-03-29T08:13:26;9.60;99.90
52209;DHT22;38507;53.132;6.394;2024-03-29T08:15:59;9.60;99.90
52209;DHT22;38507;53.132;6.394;2024-03-29T08:18:26;9.60;99.90
52209;DHT22;38507;53.132;6.394;2024-03-29T08:20:52;9.90;99.90
52209;DHT22;38507;53.132;6.394;2024-03-29T08:23:17;9.70;99.90
52209;DHT22;38507;53.132;6.394;2024-03-29T08:25:43;9.70;99.90
52209;DHT22;38507;53.132;6.394;2024-03-29T08:28:09;9.70;99.90
52209;DHT22;38507;53.132;6.394;2024-03-29T08:30:36;9.70;99.90
52209;DHT22;38507;53.132;6.394;2024-03-29T08:33:02;9.70;99.90
52209;DHT22;38507;53.132;6.394;2024-03-29T08:35:29;9.70;99.90
52209;DHT22;38507;53.132;6.394;2024-03-29T08:37:55;9.80;99.90
52209;DHT22;38507;53.132;6.394;2024-03-29T08:40:21;9.80;99.90
52209;DHT22;38507;53.132;6.394;2024-03-29T08:42:47;9.90;99.90
52209;DHT22;38507;53.132;6.394;2024-03-29T08:45:13;10.00;99.90
52209;DHT22;38507;53.132;6.394;2024-03-29T08:47:39;10.00;99.90
52209;DHT22;38507;53.132;6.394;2024-03-29T08:50:05;10.60;99.90
52209;DHT22;38507;53.132;6.394;2024-03-29T08:52:31;10.30;99.90
52209;DHT22;38507;53.132;6.394;2024-03-29T08:54:56;10.40;99.90
52209;DHT22;38507;53.132;6.394;2024-03-29T08:57:22;10.60;99.90
52209;DHT22;38507;53.132;6.394;2024-03-29T08:59:47;11.20;99.90
52209;DHT22;38507;53.132;6.394;2024-03-29T09:02:13;10.60;99.90
52209;DHT22;38507;53.132;6.394;2024-03-29T09:04:39;10.80;99.90
52209;DHT22;38507;53.132;6.394;2024-03-29T09:07:04;11.00;99.90
52209;DHT22;38507;53.132;6.394;2024-03-29T09:09:31;11.80;99.90
52209;DHT22;38507;53.132;6.394;2024-03-29T09:11:58;11.20;99.90
52209;DHT22;38507;53.132;6.394;2024-03-29T09:14:26;11.20;99.90
52209;DHT22;38507;53.132;6.394;2024-03-29T09:16:52;11.40;99.90
52209;DHT22;38507;53.132;6.394;2024-03-29T09:19:19;11.50;99.90
52209;DHT22;38507;53.132;6.394;2024-03-29T09:21:45;11.50;99.90
52209;DHT22;38507;53.132;6.394;2024-03-29T09:24:10;11.60;99.90
52209;DHT22;38507;53.132;6.394;2024-03-29T09:26:37;11.50;99.90
52209;DHT22;38507;53.132;6.394;2024-03-29T09:29:05;11.50;99.90
52209;DHT22;38507;53.132;6.394;2024-03-29T09:31:31;11.40;99.90
52209;DHT22;38507;53.132;6.394;2024-03-29T09:33:57;11.40;99.90
52209;DHT22;38507;53.132;6.394;2024-03-29T09:36:23;11.40;99.90
52209;DHT22;38507;53.132;6.394;2024-03-29T09:38:52;11.40;99.90
52209;DHT22;38507;53.132;6.394;2024-03-29T09:41:22;11.40;99.90
52209;DHT22;38507;53.132;6.394;2024-03-29T09:43:55;11.60;99.90
52209;DHT22;38507;53.132;6.394;2024-03-29T09:46:23;11.60;99.90
52209;DHT22;38507;53.132;6.394;2024-03-29T09:48:50;11.50;99.90
52209;DHT22;38507;53.132;6.394;2024-03-29T09:51:18;11.70;99.90
52209;DHT22;38507;53.132;6.394;2024-03-29T09:53:53;11.70;99.90
52209;DHT22;38507;53.132;6.394;2024-03-29T09:56:22;11.80;99.90
52209;DHT22;38507;53.132;6.394;2024-03-29T09:58:50;11.70;99.90
52209;DHT22;38507;53.132;6.394;2024-03-29T10:01:16;12.10;99.90
52209;DHT22;38507;53.132;6.394;2024-03-29T10:03:49;11.80;99.90
52209;DHT22;38507;53.132;6.394;2024-03-29T10:06:18;11.70;99.90
52209;DHT22;38507;53.132;6.394;2024-03-29T10:08:48;11.70;99.90
52209;DHT22;38507;53.132;6.394;2024-03-29T10:11:14;11.70;99.90
52209;DHT22;38507;53.132;6.394;2024-03-29T10:13:45;12.50;99.90
52209;DHT22;38507;53.132;6.394;2024-03-29T10:16:11;11.80;99.90
52209;DHT22;38507;53.132;6.394;2024-03-29T10:18:40;11.80;99.90
52209;DHT22;38507;53.132;6.394;2024-03-29T10:21:07;11.90;99.90
52209;DHT22;38507;53.132;6.394;2024-03-29T10:23:34;12.10;99.90
52209;DHT22;38507;53.132;6.394;2024-03-29T10:26:01;12.70;99.90
52209;DHT22;38507;53.132;6.394;2024-03-29T10:28:31;12.30;99.90
52209;DHT22;38507;53.132;6.394;2024-03-29T10:31:04;12.20;99.90
52209;DHT22;38507;53.132;6.394;2024-03-29T10:33:31;12.30;99.90
52209;DHT22;38507;53.132;6.394;2024-03-29T10:35:58;12.20;99.90
52209;DHT22;38507;53.132;6.394;2024-03-29T10:38:26;12.30;99.90
52209;DHT22;38507;53.132;6.394;2024-03-29T10:40:52;12.60;99.90
52209;DHT22;38507;53.132;6.394;2024-03-29T10:43:19;12.40;99.90
52209;DHT22;38507;53.132;6.394;2024-03-29T10:45:48;12.40;99.90
52209;DHT22;38507;53.132;6.394;2024-03-29T10:48:16;12.40;99.90
52209;DHT22;38507;53.132;6.394;2024-03-29T10:50:45;12.30;99.90
52209;DHT22;38507;53.132;6.394;2024-03-29T10:53:13;12.30;99.90
52209;DHT22;38507;53.132;6.394;2024-03-29T10:55:39;12.20;99.90
52209;DHT22;38507;53.132;6.394;2024-03-29T10:58:05;12.20;99.90
52209;DHT22;38507;53.132;6.394;2024-03-29T11:00:45;12.20;99.90
52209;DHT22;38507;53.132;6.394;2024-03-29T11:05:50;12.20;99.90
52209;DHT22;38507;53.132;6.394;2024-03-29T11:08:24;12.20;99.90
52209;DHT22;38507;53.132;6.394;2024-03-29T11:10:54;12.20;99.90
52209;DHT22;38507;53.132;6.394;2024-03-29T11:16:26;12.30;99.90
52209;DHT22;38507;53.132;6.394;2024-03-29T11:18:52;12.30;99.90
52209;DHT22;38507;53.132;6.394;2024-03-29T11:21:18;12.30;99.90
52209;DHT22;38507;53.132;6.394;2024-03-29T11:23:49;12.30;99.90
52209;DHT22;38507;53.132;6.394;2024-03-29T11:26:16;12.60;99.90
52209;DHT22;38507;53.132;6.394;2024-03-29T11:28:52;12.90;99.90
52209;DHT22;38507;53.132;6.394;2024-03-29T11:31:21;13.10;99.90
52209;DHT22;38507;53.132;6.394;2024-03-29T11:33:48;13.30;99.90
52209;DHT22;38507;53.132;6.394;2024-03-29T11:36:20;13.60;99.90
52209;DHT22;38507;53.132;6.394;2024-03-29T11:38:53;13.20;99.90
52209;DHT22;38507;53.132;6.394;2024-03-29T11:41:24;13.20;99.90
52209;DHT22;38507;53.132;6.394;2024-03-29T11:43:56;13.10;99.90
52209;DHT22;38507;53.132;6.394;2024-03-29T11:46:22;13.20;99.90
52209;DHT22;38507;53.132;6.394;2024-03-29T11:48:49;13.60;99.90
52209;DHT22;38507;53.132;6.394;2024-03-29T11:51:20;13.40;99.90
52209;DHT22;38507;53.132;6.394;2024-03-29T11:53:50;13.70;99.90
52209;DHT22;38507;53.132;6.394;2024-03-29T11:56:17;14.40;99.90
52209;DHT22;38507;53.132;6.394;2024-03-29T11:58:42;14.10;99.90
52209;DHT22;38507;53.132;6.394;2024-03-29T12:01:08;14.50;99.90
52209;DHT22;38507;53.132;6.394;2024-03-29T12:03:41;14.00;99.90
52209;DHT22;38507;53.132;6.394;2024-03-29T12:06:08;14.30;99.90
52209;DHT22;38507;53.132;6.394;2024-03-29T12:08:38;14.00;99.90
52209;DHT22;38507;53.132;6.394;2024-03-29T12:11:04;14.00;99.90
52209;DHT22;38507;53.132;6.394;2024-03-29T12:13:31;13.90;99.90
52209;DHT22;38507;53.132;6.394;2024-03-29T12:15:57;14.10;99.90
52209;DHT22;38507;53.132;6.394;2024-03-29T12:18:24;14.30;99.90
52209;DHT22;38507;53.132;6.394;2024-03-29T12:20:51;14.40;99.90
52209;DHT22;38507;53.132;6.394;2024-03-29T12:23:19;14.40;99.90
52209;DHT22;38507;53.132;6.394;2024-03-29T12:25:47;14.50;99.90
52209;DHT22;38507;53.132;6.394;2024-03-29T12:28:13;14.40;99.90
52209;DHT22;38507;53.132;6.394;2024-03-29T12:30:44;14.30;99.90
52209;DHT22;38507;53.132;6.394;2024-03-29T12:33:18;14.20;99.90
52209;DHT22;38507;53.132;6.394;2024-03-29T12:35:51;14.30;99.90
52209;DHT22;38507;53.132;6.394;2024-03-29T12:38:21;14.40;99.90
52209;DHT22;38507;53.132;6.394;2024-03-29T12:40:49;14.40;99.90
52209;DHT22;38507;53.132;6.394;2024-03-29T12:43:20;14.20;99.90
52209;DHT22;38507;53.132;6.394;2024-03-29T12:45:48;14.70;99.90
52209;DHT22;38507;53.132;6.394;2024-03-29T12:48:21;14.20;99.90
52209;DHT22;38507;53.132;6.394;2024-03-29T12:50:50;14.40;99.90
52209;DHT22;38507;53.132;6.394;2024-03-29T12:53:16;14.40;99.90
52209;DHT22;38507;53.132;6.394;2024-03-29T12:55:44;14.30;99.90
52209;DHT22;38507;53.132;6.394;2024-03-29T12:58:11;14.40;99.90
52209;DHT22;38507;53.132;6.394;2024-03-29T13:00:38;14.50;99.90
52209;DHT22;38507;53.132;6.394;2024-03-29T13:03:04;14.50;99.90
52209;DHT22;38507;53.132;6.394;2024-03-29T13:05:30;14.60;99.90
52209;DHT22;38507;53.132;6.394;2024-03-29T13:08:01;14.60;99.90
52209;DHT22;38507;53.132;6.394;2024-03-29T13:10:28;14.40;99.90
52209;DHT22;38507;53.132;6.394;2024-03-29T13:12:54;14.50;99.90
52209;DHT22;38507;53.132;6.394;2024-03-29T13:17:48;14.80;99.90
52209;DHT22;38507;53.132;6.394;2024-03-29T13:20:15;14.80;99.90
52209;DHT22;38507;53.132;6.394;2024-03-29T13:22:45;14.80;99.90
52209;DHT22;38507;53.132;6.394;2024-03-29T13:25:19;14.90;99.90
52209;DHT22;38507;53.132;6.394;2024-03-29T13:27:52;14.70;99.90
52209;DHT22;38507;53.132;6.394;2024-03-29T13:30:25;14.60;99.90
52209;DHT22;38507;53.132;6.394;2024-03-29T13:32:52;14.40;99.90
52209;DHT22;38507;53.132;6.394;2024-03-29T13:35:18;14.50;99.90
52209;DHT22;38507;53.132;6.394;2024-03-29T13:37:51;14.10;99.90
52209;DHT22;38507;53.132;6.394;2024-03-29T13:40:20;14.40;99.90
52209;DHT22;38507;53.132;6.394;2024-03-29T13:42:46;14.20;99.90
52209;DHT22;38507;53.132;6.394;2024-03-29T13:45:12;14.20;99.90
52209;DHT22;38507;53.132;6.394;2024-03-29T13:47:40;14.10;99.90
52209;DHT22;38507;53.132;6.394;2024-03-29T13:50:07;14.00;99.90
52209;DHT22;38507;53.132;6.394;2024-03-29T13:52:33;14.00;99.90
52209;DHT22;38507;53.132;6.394;2024-03-29T13:55:00;14.40;99.90
52209;DHT22;38507;53.132;6.394;2024-03-29T13:57:26;14.10;99.90
52209;DHT22;38507;53.132;6.394;2024-03-29T13:59:52;14.30;99.90
52209;DHT22;38507;53.132;6.394;2024-03-29T14:02:18;14.40;99.90
52209;DHT22;38507;53.132;6.394;2024-03-29T14:04:45;14.80;99.90
52209;DHT22;38507;53.132;6.394;2024-03-29T14:07:12;14.60;99.90
52209;DHT22;38507;53.132;6.394;2024-03-29T14:09:41;14.80;99.90
52209;DHT22;38507;53.132;6.394;2024-03-29T14:12:08;14.70;99.90
52209;DHT22;38507;53.132;6.394;2024-03-29T14:14:34;14.70;99.90
52209;DHT22;38507;53.132;6.394;2024-03-29T14:16:59;14.70;99.90
52209;DHT22;38507;53.132;6.394;2024-03-29T14:19:33;15.10;99.90
52209;DHT22;38507;53.132;6.394;2024-03-29T14:22:00;14.70;99.90
52209;DHT22;38507;53.132;6.394;2024-03-29T14:24:26;14.90;99.90
52209;DHT22;38507;53.132;6.394;2024-03-29T14:26:52;14.50;99.90
52209;DHT22;38507;53.132;6.394;2024-03-29T14:29:18;15.10;99.90
52209;DHT22;38507;53.132;6.394;2024-03-29T14:31:50;14.40;99.90
52209;DHT22;38507;53.132;6.394;2024-03-29T14:34:17;14.40;99.90
52209;DHT22;38507;53.132;6.394;2024-03-29T14:36:43;14.20;99.90
52209;DHT22;38507;53.132;6.394;2024-03-29T14:39:09;14.60;99.90
52209;DHT22;38507;53.132;6.394;2024-03-29T14:41:38;14.40;99.90
52209;DHT22;38507;53.132;6.394;2024-03-29T14:44:05;14.20;99.90
52209;DHT22;38507;53.132;6.394;2024-03-29T14:46:32;14.20;99.90
52209;DHT22;38507;53.132;6.394;2024-03-29T14:48:58;14.20;99.90
52209;DHT22;38507;53.132;6.394;2024-03-29T14:51:23;14.10;99.90
52209;DHT22;38507;53.132;6.394;2024-03-29T14:53:49;14.00;99.90
52209;DHT22;38507;53.132;6.394;2024-03-29T14:56:18;14.70;99.90
52209;DHT22;38507;53.132;6.394;2024-03-29T14:58:43;14.00;99.90
52209;DHT22;38507;53.132;6.394;2024-03-29T15:01:10;13.90;99.90
52209;DHT22;38507;53.132;6.394;2024-03-29T15:03:36;14.40;99.90
52209;DHT22;38507;53.132;6.394;2024-03-29T15:06:01;13.90;99.90
52209;DHT22;38507;53.132;6.394;2024-03-29T15:08:27;14.20;99.90
52209;DHT22;38507;53.132;6.394;2024-03-29T15:11:11;14.00;99.90
52209;DHT22;38507;53.132;6.394;2024-03-29T15:13:36;14.60;99.90
52209;DHT22;38507;53.132;6.394;2024-03-29T15:16:02;14.20;99.90
52209;DHT22;38507;53.132;6.394;2024-03-29T15:18:28;14.20;99.90
52209;DHT22;38507;53.132;6.394;2024-03-29T15:20:58;14.20;99.90
52209;DHT22;38507;53.132;6.394;2024-03-29T15:23:24;14.10;99.90
52209;DHT22;38507;53.132;6.394;2024-03-29T15:25:54;14.30;99.90
52209;DHT22;38507;53.132;6.394;2024-03-29T15:28:21;14.20;99.90
52209;DHT22;38507;53.132;6.394;2024-03-29T15:31:13;14.10;99.90
52209;DHT22;38507;53.132;6.394;2024-03-29T15:33:42;14.10;99.90
52209;DHT22;38507;53.132;6.394;2024-03-29T15:36:07;14.50;99.90
52209;DHT22;38507;53.132;6.394;2024-03-29T15:38:36;14.10;99.90
52209;DHT22;38507;53.132;6.394;2024-03-29T15:41:01;14.10;99.90
52209;DHT22;38507;53.132;6.394;2024-03-29T15:43:28;14.10;99.90
52209;DHT22;38507;53.132;6.394;2024-03-29T15:45:57;14.10;99.90
52209;DHT22;38507;53.132;6.394;2024-03-29T15:48:23;14.40;99.90